Time;durP1;ratioP1;P1;durP2;ratioP2;P2;SDS_P1;SDS_P2;PMS_P1;PMS_P2;Temp;Humidity;BMP_temperature;BMP_pressure;BME280_temperature;BME280_humidity;BME280_pressure;Samples;Min_cycle;Max_cycle;Signal;HPM_P1;HPM_P2
2022/02/26 00:01:55;;;;;;;3.15;1.48;;;7.60;99.90;;;;;;5071184;28;20219;-70
2022/02/26 00:04:25;;;;;;;1.77;1.42;;;7.60;99.90;;;;;;5086620;28;20216;-70
2022/02/26 00:06:54;;;;;;;2.85;1.50;;;7.60;99.90;;;;;;5082097;28;20221;-70
2022/02/26 00:09:22;;;;;;;2.58;1.58;;;7.60;99.90;;;;;;5071475;28;20184;-70
2022/02/26 00:11:52;;;;;;;3.15;1.70;;;7.60;99.90;;;;;;5082562;28;20227;-70
2022/02/26 00:14:20;;;;;;;1.77;1.05;;;7.60;99.90;;;;;;5075594;28;20187;-70
2022/02/26 00:16:48;;;;;;;4.03;2.40;;;7.60;99.90;;;;;;5090366;28;20257;-70
2022/02/26 00:19:16;;;;;;;3.00;1.60;;;7.60;99.90;;;;;;5084545;28;20182;-70
2022/02/26 00:21:44;;;;;;;2.97;2.05;;;7.60;99.90;;;;;;5089440;28;20231;-70
2022/02/26 00:24:14;;;;;;;5.95;2.03;;;7.60;99.90;;;;;;5072163;28;20195;-70
2022/02/26 00:26:42;;;;;;;1.90;1.40;;;7.60;99.90;;;;;;5076884;28;20574;-70
2022/02/26 00:29:12;;;;;;;1.95;1.60;;;7.60;99.90;;;;;;5085052;28;20196;-70
2022/02/26 00:31:43;;;;;;;3.15;1.55;;;7.60;99.90;;;;;;5080780;28;20222;-70
2022/02/26 00:34:11;;;;;;;2.90;1.77;;;7.60;99.90;;;;;;5084921;28;20207;-70
2022/02/26 00:36:39;;;;;;;1.80;1.60;;;7.60;99.90;;;;;;5073569;28;20224;-70
2022/02/26 00:39:07;;;;;;;2.78;1.70;;;7.60;99.90;;;;;;5071068;28;20266;-70
2022/02/26 00:41:35;;;;;;;5.50;1.85;;;7.60;99.90;;;;;;5079165;28;20246;-70
2022/02/26 00:44:04;;;;;;;1.50;1.40;;;7.60;99.90;;;;;;5088322;28;20187;-70
2022/02/26 00:46:35;;;;;;;1.73;1.63;;;7.60;99.90;;;;;;5087723;28;20216;-70
2022/02/26 00:51:49;;;;;;;2.15;1.52;;;7.50;99.90;;;;;;5030318;28;20231;-70
2022/02/26 00:54:17;;;;;;;3.45;2.05;;;7.50;99.90;;;;;;5085786;28;20260;-70
2022/02/26 00:56:45;;;;;;;3.55;1.60;;;7.50;99.90;;;;;;5073495;28;20215;-70
2022/02/26 00:59:14;;;;;;;2.00;1.40;;;7.50;99.90;;;;;;5090436;28;20654;-70
2022/02/26 01:01:43;;;;;;;1.80;1.33;;;7.50;99.90;;;;;;5072960;28;20234;-70
2022/02/26 01:04:12;;;;;;;2.47;1.70;;;7.50;99.90;;;;;;5088114;28;20187;-70
2022/02/26 01:06:41;;;;;;;2.10;1.70;;;7.50;99.90;;;;;;5077816;28;20300;-70
2022/02/26 01:09:09;;;;;;;2.08;1.40;;;7.50;99.90;;;;;;5082490;28;20291;-70
2022/02/26 01:11:39;;;;;;;2.50;1.50;;;7.50;99.90;;;;;;5080031;28;20222;-70
2022/02/26 01:14:08;;;;;;;3.55;1.63;;;7.50;99.90;;;;;;5090261;28;20183;-70
2022/02/26 01:16:36;;;;;;;2.78;1.90;;;7.50;99.90;;;;;;5090314;28;20715;-70
2022/02/26 01:19:06;;;;;;;3.58;1.60;;;7.50;99.90;;;;;;5072615;28;20195;-70
2022/02/26 01:21:34;;;;;;;3.60;1.60;;;7.50;99.90;;;;;;5080062;28;20228;-70
2022/02/26 01:24:03;;;;;;;3.75;2.20;;;7.50;99.90;;;;;;5077427;28;20246;-70
2022/02/26 01:26:32;;;;;;;2.28;1.38;;;7.50;99.90;;;;;;5078758;28;20231;-70
2022/02/26 01:29:03;;;;;;;2.25;1.70;;;7.50;99.90;;;;;;5053321;28;20230;-70
2022/02/26 01:31:32;;;;;;;1.90;1.48;;;7.50;99.90;;;;;;5069888;28;20234;-70
2022/02/26 01:34:02;;;;;;;2.65;1.45;;;7.50;99.90;;;;;;5083274;28;20195;-70
2022/02/26 01:36:31;;;;;;;2.60;1.70;;;7.50;99.90;;;;;;5088555;28;20712;-70
2022/02/26 01:39:04;;;;;;;4.65;1.60;;;7.50;99.90;;;;;;5074860;28;20218;-70
2022/02/26 01:41:32;;;;;;;1.83;1.13;;;7.50;99.90;;;;;;5082826;28;20703;-70
2022/02/26 01:44:04;;;;;;;2.83;1.55;;;7.50;99.90;;;;;;5083607;28;20283;-70
2022/02/26 01:46:34;;;;;;;2.45;1.95;;;7.50;99.90;;;;;;5084410;28;20301;-70
2022/02/26 01:49:06;;;;;;;2.72;1.55;;;7.50;99.90;;;;;;5094135;28;20187;-70
2022/02/26 01:51:35;;;;;;;2.85;1.40;;;7.50;99.90;;;;;;5074116;28;20218;-70
2022/02/26 01:54:06;;;;;;;3.67;1.88;;;7.50;99.90;;;;;;5084415;28;20191;-70
2022/02/26 01:56:37;;;;;;;4.30;2.00;;;7.50;99.90;;;;;;5084447;28;20577;-70
2022/02/26 01:59:07;;;;;;;1.92;1.63;;;7.40;99.90;;;;;;5081479;28;20238;-70
2022/02/26 02:01:36;;;;;;;1.73;1.10;;;7.50;99.90;;;;;;5080444;28;20763;-70
2022/02/26 02:04:05;;;;;;;1.08;1.05;;;7.40;99.90;;;;;;5083710;28;20212;-70
2022/02/26 02:06:34;;;;;;;4.07;2.20;;;7.40;99.90;;;;;;5073714;28;20249;-70
2022/02/26 02:09:02;;;;;;;2.33;1.90;;;7.40;99.90;;;;;;5073923;28;20188;-70
2022/02/26 02:11:31;;;;;;;1.55;1.33;;;7.40;99.90;;;;;;5071042;28;20219;-70
2022/02/26 02:13:59;;;;;;;2.25;2.10;;;7.40;99.90;;;;;;5066838;28;20188;-70
2022/02/26 02:16:35;;;;;;;2.25;1.55;;;7.40;99.90;;;;;;5084744;28;20229;-70
2022/02/26 02:19:05;;;;;;;2.20;1.73;;;7.40;99.90;;;;;;5088670;28;20199;-70
2022/02/26 02:21:35;;;;;;;1.80;1.40;;;7.40;99.90;;;;;;5074484;28;20217;-70
2022/02/26 02:24:05;;;;;;;1.88;1.30;;;7.40;99.90;;;;;;5068678;28;20553;-70
2022/02/26 02:26:34;;;;;;;2.63;1.88;;;7.40;99.90;;;;;;5092042;28;20226;-70
2022/02/26 02:29:04;;;;;;;1.95;1.48;;;7.40;99.90;;;;;;5056762;28;20197;-70
2022/02/26 02:31:33;;;;;;;2.05;1.45;;;7.40;99.90;;;;;;5089649;28;20269;-70
2022/02/26 02:34:01;;;;;;;1.88;1.30;;;7.40;99.90;;;;;;5082828;28;20179;-70
2022/02/26 02:36:29;;;;;;;2.03;1.90;;;7.40;99.90;;;;;;5080708;28;20212;-70
2022/02/26 02:38:57;;;;;;;2.70;2.13;;;7.40;99.90;;;;;;5088794;28;20682;-70
2022/02/26 02:41:27;;;;;;;3.10;1.65;;;7.40;99.90;;;;;;5083210;28;20269;-70
2022/02/26 02:43:55;;;;;;;5.45;1.60;;;7.40;99.90;;;;;;5086594;28;20187;-70
2022/02/26 02:46:24;;;;;;;1.75;1.58;;;7.40;99.90;;;;;;5084843;28;20271;-70
2022/02/26 02:48:52;;;;;;;4.70;1.73;;;7.40;99.90;;;;;;5075245;28;20199;-70
2022/02/26 02:51:22;;;;;;;1.90;1.00;;;7.40;99.90;;;;;;5076115;28;20224;-70
2022/02/26 02:53:50;;;;;;;5.03;1.90;;;7.40;99.90;;;;;;5084249;28;20550;-70
2022/02/26 02:56:18;;;;;;;2.42;1.40;;;7.40;99.90;;;;;;5092059;28;20213;-70
2022/02/26 02:58:48;;;;;;;2.22;1.80;;;7.40;99.90;;;;;;5089233;28;20672;-70
2022/02/26 03:01:16;;;;;;;1.85;1.40;;;7.30;99.90;;;;;;5086891;28;20304;-70
2022/02/26 03:03:44;;;;;;;2.47;1.60;;;7.40;99.90;;;;;;5082269;28;20188;-70
2022/02/26 03:06:12;;;;;;;2.55;1.70;;;7.40;99.90;;;;;;5084009;28;20269;-70
2022/02/26 03:08:41;;;;;;;3.40;1.30;;;7.40;99.90;;;;;;5092584;28;20286;-70
2022/02/26 03:11:10;;;;;;;1.60;1.38;;;7.30;99.90;;;;;;5087729;28;20608;-70
2022/02/26 03:13:41;;;;;;;1.90;1.52;;;7.30;99.90;;;;;;5075090;28;20193;-70
2022/02/26 03:16:11;;;;;;;1.42;1.10;;;7.30;99.90;;;;;;5091873;28;20318;-70
2022/02/26 03:18:41;;;;;;;2.47;1.80;;;7.30;99.90;;;;;;5056475;28;20222;-70
2022/02/26 03:21:09;;;;;;;1.60;1.50;;;7.30;99.90;;;;;;5077424;28;20704;-70
2022/02/26 03:23:37;;;;;;;1.98;1.35;;;7.30;99.90;;;;;;5083648;28;20241;-70
2022/02/26 03:26:06;;;;;;;1.83;1.50;;;7.30;99.90;;;;;;5091681;28;20264;-70
2022/02/26 03:28:37;;;;;;;3.22;1.63;;;7.30;99.90;;;;;;5083319;28;20676;-70
2022/02/26 03:31:05;;;;;;;1.98;1.50;;;7.30;99.90;;;;;;5085541;28;20727;-70
2022/02/26 03:33:36;;;;;;;1.88;1.30;;;7.30;99.90;;;;;;5083421;28;20196;-70
2022/02/26 03:36:04;;;;;;;2.78;1.45;;;7.30;99.90;;;;;;5077442;28;20219;-70
2022/02/26 03:38:38;;;;;;;2.40;1.40;;;7.30;99.90;;;;;;5081031;28;20741;-70
2022/02/26 03:41:07;;;;;;;3.42;1.50;;;7.30;99.90;;;;;;5067831;28;20219;-70
2022/02/26 03:43:38;;;;;;;2.53;1.30;;;7.30;99.90;;;;;;5081685;28;20201;-70
2022/02/26 03:46:07;;;;;;;4.43;2.70;;;7.30;99.90;;;;;;5072626;28;20310;-70
2022/02/26 03:48:36;;;;;;;2.15;1.95;;;7.30;99.90;;;;;;5072714;28;20209;-70
2022/02/26 03:51:06;;;;;;;1.98;1.63;;;7.30;99.90;;;;;;5090483;28;20648;-70
2022/02/26 03:53:34;;;;;;;5.50;2.33;;;7.30;99.90;;;;;;5082535;28;20718;-70
2022/02/26 03:56:02;;;;;;;2.92;1.90;;;7.30;99.90;;;;;;5078134;28;20223;-70
2022/02/26 03:58:30;;;;;;;2.75;1.55;;;7.30;99.90;;;;;;5072745;28;20188;-70
2022/02/26 04:00:58;;;;;;;1.92;1.55;;;7.30;99.90;;;;;;5071785;28;20285;-70
2022/02/26 04:03:27;;;;;;;1.23;1.13;;;7.20;99.90;;;;;;5073502;28;20187;-70
2022/02/26 04:05:56;;;;;;;3.55;1.83;;;7.30;99.90;;;;;;5084188;28;20696;-70
2022/02/26 04:08:28;;;;;;;3.63;2.55;;;7.30;99.90;;;;;;5091443;28;20244;-70
2022/02/26 04:10:56;;;;;;;1.50;1.30;;;7.30;99.90;;;;;;5074936;28;20587;-70
2022/02/26 04:13:25;;;;;;;3.53;1.50;;;7.20;99.90;;;;;;5084327;28;20612;-70
2022/02/26 04:15:56;;;;;;;3.63;1.60;;;7.20;99.90;;;;;;5070812;28;20219;-70
2022/02/26 04:18:24;;;;;;;1.90;1.55;;;7.20;99.90;;;;;;5054846;28;20218;-70
2022/02/26 04:20:52;;;;;;;6.10;1.67;;;7.20;99.90;;;;;;5089632;28;20731;-70
2022/02/26 04:23:22;;;;;;;1.58;1.40;;;7.20;99.90;;;;;;5082541;28;20228;-70
2022/02/26 04:25:50;;;;;;;3.17;2.10;;;7.20;99.90;;;;;;5072665;28;20226;-70
2022/02/26 04:28:18;;;;;;;1.27;1.15;;;7.20;99.90;;;;;;5076675;28;20208;-70
2022/02/26 04:30:46;;;;;;;2.88;1.67;;;7.20;99.90;;;;;;5086128;28;20219;-70
2022/02/26 04:33:14;;;;;;;1.90;1.65;;;7.20;99.90;;;;;;5079193;28;20248;-70
2022/02/26 04:35:43;;;;;;;2.28;1.42;;;7.20;99.90;;;;;;5074585;28;20728;-70
2022/02/26 04:38:11;;;;;;;3.10;2.08;;;7.20;99.90;;;;;;5083588;28;20235;-70
2022/02/26 04:40:41;;;;;;;2.45;1.77;;;7.20;99.90;;;;;;5078101;28;20215;-70
2022/02/26 04:43:09;;;;;;;2.33;1.88;;;7.20;99.90;;;;;;5079417;28;20241;-70
2022/02/26 04:45:37;;;;;;;5.63;2.15;;;7.20;99.90;;;;;;5070864;28;20224;-70
2022/02/26 04:48:05;;;;;;;3.50;1.40;;;7.20;99.90;;;;;;5087494;28;20211;-70
2022/02/26 04:50:33;;;;;;;2.70;1.90;;;7.20;99.90;;;;;;5088677;28;20234;-70
2022/02/26 04:53:02;;;;;;;1.70;1.42;;;7.10;99.90;;;;;;5078005;28;20668;-70
2022/02/26 04:55:30;;;;;;;2.58;1.30;;;7.10;99.90;;;;;;5086895;28;20281;-70
2022/02/26 04:57:59;;;;;;;1.95;1.40;;;7.10;99.90;;;;;;5078846;28;20688;-70
2022/02/26 05:00:28;;;;;;;3.45;1.98;;;7.10;99.90;;;;;;5086706;28;20256;-70
2022/02/26 05:02:56;;;;;;;2.75;1.80;;;7.10;99.90;;;;;;5081845;28;20611;-70
2022/02/26 05:05:24;;;;;;;2.40;1.70;;;7.10;99.90;;;;;;5077659;28;20305;-70
2022/02/26 05:07:52;;;;;;;2.88;1.65;;;7.10;99.90;;;;;;5074142;28;20199;-70
2022/02/26 05:10:21;;;;;;;3.92;1.58;;;7.20;99.90;;;;;;5082728;28;20227;-70
2022/02/26 05:12:49;;;;;;;2.75;1.73;;;7.10;99.90;;;;;;5082863;28;20541;-70
2022/02/26 05:15:19;;;;;;;2.85;1.75;;;7.10;99.90;;;;;;5071534;28;20232;-70
2022/02/26 05:17:47;;;;;;;5.40;2.08;;;7.10;99.90;;;;;;5094649;28;20194;-70
2022/02/26 05:20:15;;;;;;;1.73;1.63;;;7.10;99.90;;;;;;5087283;28;20557;-70
2022/02/26 05:22:44;;;;;;;2.10;1.90;;;7.10;99.90;;;;;;5066919;28;20202;-70
2022/02/26 05:25:12;;;;;;;2.60;1.80;;;7.10;99.90;;;;;;5061607;28;20689;-70
2022/02/26 05:27:42;;;;;;;3.63;2.38;;;7.10;99.90;;;;;;5084429;28;20680;-70
2022/02/26 05:30:12;;;;;;;3.35;2.05;;;7.10;99.90;;;;;;5079910;28;20207;-70
2022/02/26 05:32:41;;;;;;;4.25;1.50;;;7.10;99.90;;;;;;5083023;28;20253;-70
2022/02/26 05:35:10;;;;;;;5.07;2.17;;;7.10;99.90;;;;;;5080197;28;20693;-70
2022/02/26 05:37:39;;;;;;;3.70;2.00;;;7.10;99.90;;;;;;5075609;28;20183;-70
2022/02/26 05:40:08;;;;;;;2.50;1.70;;;7.10;99.90;;;;;;5075548;28;20187;-70
2022/02/26 05:42:36;;;;;;;2.47;2.03;;;7.10;99.90;;;;;;5086984;28;20192;-70
2022/02/26 05:45:05;;;;;;;2.88;2.08;;;7.10;99.90;;;;;;5080068;28;20204;-70
2022/02/26 05:47:34;;;;;;;3.22;1.45;;;7.10;99.90;;;;;;5090507;28;20207;-70
2022/02/26 05:50:03;;;;;;;2.15;1.95;;;7.10;99.90;;;;;;5061468;28;20181;-71
2022/02/26 05:52:32;;;;;;;2.67;1.60;;;7.10;99.90;;;;;;5083408;28;20223;-70
2022/02/26 05:55:00;;;;;;;2.42;1.90;;;7.00;99.90;;;;;;5089058;28;20195;-71
2022/02/26 05:57:28;;;;;;;3.97;2.30;;;7.00;99.90;;;;;;5064410;28;20191;-70
2022/02/26 05:59:59;;;;;;;2.38;1.70;;;7.10;99.90;;;;;;5083133;28;20219;-70
2022/02/26 06:02:27;;;;;;;2.30;1.85;;;7.00;99.90;;;;;;5073551;28;20216;-70
2022/02/26 06:04:55;;;;;;;8.23;3.53;;;7.00;99.90;;;;;;5078624;28;20607;-70
2022/02/26 06:07:25;;;;;;;2.97;1.90;;;7.00;99.90;;;;;;5093554;28;20303;-70
2022/02/26 06:09:53;;;;;;;2.80;1.80;;;7.00;99.90;;;;;;5082500;28;20271;-70
2022/02/26 06:12:21;;;;;;;3.40;2.28;;;7.00;99.90;;;;;;5084444;28;20384;-70
2022/02/26 06:14:49;;;;;;;2.33;2.13;;;7.00;99.90;;;;;;5084613;28;20268;-70
2022/02/26 06:17:17;;;;;;;2.80;1.40;;;7.00;99.90;;;;;;5093256;28;20272;-70
2022/02/26 06:19:45;;;;;;;2.60;1.83;;;7.00;99.90;;;;;;5078139;28;20206;-70
2022/02/26 06:22:13;;;;;;;1.55;1.45;;;7.00;99.90;;;;;;5086965;28;20273;-70
2022/02/26 06:24:43;;;;;;;2.28;1.80;;;7.00;99.90;;;;;;5073255;28;20189;-70
2022/02/26 06:27:12;;;;;;;2.10;1.65;;;7.00;99.90;;;;;;5073048;28;20694;-70
2022/02/26 06:29:40;;;;;;;3.05;2.30;;;7.00;99.90;;;;;;5074389;28;20219;-70
2022/02/26 06:32:09;;;;;;;2.80;2.17;;;7.00;99.90;;;;;;5078112;28;20277;-70
2022/02/26 06:34:37;;;;;;;3.53;2.22;;;7.00;99.90;;;;;;5092720;28;20192;-70
2022/02/26 06:37:05;;;;;;;2.72;1.80;;;7.00;99.90;;;;;;5091954;28;20276;-70
2022/02/26 06:39:33;;;;;;;2.50;1.92;;;7.00;99.90;;;;;;5091647;28;20209;-70
2022/02/26 06:42:03;;;;;;;2.33;1.65;;;7.00;99.90;;;;;;5089484;28;20219;-70
2022/02/26 06:44:31;;;;;;;2.58;2.15;;;7.00;99.90;;;;;;5072457;28;20995;-70
2022/02/26 06:47:00;;;;;;;3.03;2.38;;;7.00;99.90;;;;;;5087866;28;20697;-70
2022/02/26 06:49:30;;;;;;;1.95;1.75;;;6.90;99.90;;;;;;5073715;28;20219;-70
2022/02/26 06:51:58;;;;;;;3.67;1.90;;;6.90;99.90;;;;;;5076241;28;20219;-70
2022/02/26 06:54:26;;;;;;;2.40;2.20;;;6.90;99.90;;;;;;5092859;28;20274;-70
2022/02/26 06:56:55;;;;;;;2.70;1.90;;;6.90;99.90;;;;;;5091181;28;20595;-70
2022/02/26 06:59:24;;;;;;;2.40;2.20;;;6.90;99.90;;;;;;5080408;28;20610;-70
2022/02/26 07:01:52;;;;;;;3.42;2.15;;;7.00;99.90;;;;;;5071120;28;20318;-70
2022/02/26 07:04:21;;;;;;;2.95;1.70;;;6.90;99.90;;;;;;5072716;28;20713;-70
2022/02/26 07:06:49;;;;;;;3.90;2.10;;;6.90;99.90;;;;;;5087723;28;20211;-70
2022/02/26 07:09:21;;;;;;;3.58;2.30;;;6.90;99.90;;;;;;5092000;28;20207;-70
2022/02/26 07:11:50;;;;;;;4.22;2.58;;;6.90;99.90;;;;;;5083704;28;20216;-70
2022/02/26 07:14:18;;;;;;;2.70;2.25;;;6.90;99.90;;;;;;5077595;28;20192;-70
2022/02/26 07:16:47;;;;;;;4.57;1.90;;;6.90;99.90;;;;;;5088278;28;20228;-70
2022/02/26 07:19:16;;;;;;;2.63;1.70;;;6.90;99.90;;;;;;5080661;28;20184;-70
2022/02/26 07:21:44;;;;;;;3.78;2.10;;;6.90;99.90;;;;;;5073604;28;20638;-70
2022/02/26 07:24:12;;;;;;;2.60;1.95;;;6.90;99.90;;;;;;5078496;28;20180;-70
2022/02/26 07:26:41;;;;;;;2.22;2.03;;;6.90;99.90;;;;;;5072034;28;20269;-70
2022/02/26 07:29:09;;;;;;;2.90;2.15;;;6.90;99.90;;;;;;5074762;28;20221;-70
2022/02/26 07:31:37;;;;;;;8.02;3.33;;;6.90;99.90;;;;;;5081161;28;20227;-70
2022/02/26 07:34:07;;;;;;;4.20;2.50;;;6.90;99.90;;;;;;5086971;28;20191;-70
2022/02/26 07:36:35;;;;;;;4.70;2.33;;;6.90;99.90;;;;;;5089380;28;20219;-70
2022/02/26 07:39:04;;;;;;;3.22;2.35;;;6.90;99.90;;;;;;5079312;28;20241;-70
2022/02/26 07:41:32;;;;;;;5.38;2.97;;;6.80;99.90;;;;;;5079998;28;20654;-70
2022/02/26 07:44:00;;;;;;;3.65;3.03;;;6.80;99.90;;;;;;5091842;28;20217;-70
2022/02/26 07:46:29;;;;;;;4.13;3.60;;;6.90;99.90;;;;;;5090747;28;20219;-70
2022/02/26 07:48:57;;;;;;;4.68;2.42;;;6.80;99.90;;;;;;5079333;28;20204;-70
2022/02/26 07:51:26;;;;;;;3.40;2.75;;;6.80;99.90;;;;;;5061621;28;20230;-70
2022/02/26 07:53:57;;;;;;;7.20;2.80;;;6.80;99.90;;;;;;5089310;28;20187;-70
2022/02/26 07:56:25;;;;;;;2.92;1.92;;;6.80;99.90;;;;;;5078827;28;20641;-70
2022/02/26 07:58:54;;;;;;;4.07;2.50;;;6.80;99.90;;;;;;5081033;28;20184;-70
2022/02/26 08:01:23;;;;;;;2.78;2.15;;;6.80;99.90;;;;;;5084172;28;20257;-70
2022/02/26 08:03:52;;;;;;;5.45;3.25;;;6.80;99.90;;;;;;5091997;28;20223;-71
2022/02/26 08:06:20;;;;;;;4.60;3.25;;;6.80;99.90;;;;;;5075870;28;20222;-71
2022/02/26 08:08:51;;;;;;;3.10;2.70;;;6.80;99.90;;;;;;5082954;28;20207;-70
2022/02/26 08:11:19;;;;;;;3.50;2.58;;;6.80;99.90;;;;;;5089850;28;20244;-71
2022/02/26 08:13:47;;;;;;;3.13;2.25;;;6.80;99.90;;;;;;5054298;28;20190;-71
2022/02/26 08:16:16;;;;;;;3.33;3.03;;;6.80;99.90;;;;;;5076962;28;20242;-71
2022/02/26 08:18:44;;;;;;;3.05;2.75;;;6.80;99.90;;;;;;5080686;28;20206;-71
2022/02/26 08:21:12;;;;;;;4.47;2.70;;;6.80;99.90;;;;;;5085917;28;20215;-71
2022/02/26 08:23:40;;;;;;;9.93;5.38;;;6.80;99.90;;;;;;5081943;28;20197;-71
2022/02/26 08:26:10;;;;;;;8.38;4.15;;;6.80;99.90;;;;;;5082856;23;20222;-53
2022/02/26 08:28:38;;;;;;;6.60;3.80;;;6.80;99.90;;;;;;5074052;28;20204;-53
2022/02/26 08:31:06;;;;;;;4.88;3.55;;;6.80;99.90;;;;;;5082307;28;20248;-51
2022/02/26 08:33:34;;;;;;;6.13;3.30;;;6.70;99.90;;;;;;5057392;28;20565;-54
2022/02/26 08:36:03;;;;;;;4.30;3.20;;;6.70;99.90;;;;;;5063008;28;20647;-52
2022/02/26 08:38:31;;;;;;;6.32;3.05;;;6.70;99.90;;;;;;5077962;28;20214;-53
2022/02/26 08:41:02;;;;;;;5.82;3.40;;;6.70;99.90;;;;;;5088660;28;20218;-53
2022/02/26 08:43:31;;;;;;;8.43;2.83;;;6.70;99.90;;;;;;5089137;28;20662;-52
2022/02/26 08:45:59;;;;;;;5.18;3.25;;;6.70;99.90;;;;;;5066010;28;20328;-51
2022/02/26 08:48:28;;;;;;;4.75;2.55;;;6.70;99.90;;;;;;5068717;28;20188;-55
2022/02/26 08:50:56;;;;;;;5.07;3.30;;;6.70;99.90;;;;;;5058411;28;20235;-53
2022/02/26 08:53:24;;;;;;;8.15;4.43;;;6.70;99.90;;;;;;5068947;28;20185;-52
2022/02/26 08:55:52;;;;;;;4.10;3.08;;;6.70;99.90;;;;;;5077756;28;20212;-54
2022/02/26 08:58:22;;;;;;;7.93;3.50;;;6.70;99.90;;;;;;5075365;28;20192;-54
2022/02/26 09:00:51;;;;;;;4.20;3.15;;;6.70;99.90;;;;;;5079825;28;20284;-53
2022/02/26 09:03:20;;;;;;;6.72;3.17;;;6.70;99.90;;;;;;5089109;28;20573;-51
2022/02/26 09:05:50;;;;;;;6.57;3.60;;;6.70;99.90;;;;;;5064795;28;20762;-51
2022/02/26 09:08:18;;;;;;;11.25;4.53;;;6.70;99.90;;;;;;5069266;28;20192;-51
2022/02/26 09:10:47;;;;;;;9.88;5.43;;;6.70;99.90;;;;;;5083644;28;20224;-52
2022/02/26 09:13:15;;;;;;;5.53;3.45;;;6.70;99.90;;;;;;5068422;28;20678;-53
2022/02/26 09:15:44;;;;;;;5.05;3.05;;;6.70;99.90;;;;;;5054791;28;20228;-54
2022/02/26 09:18:14;;;;;;;3.25;2.30;;;6.70;99.90;;;;;;5068808;28;20184;-51
2022/02/26 09:20:43;;;;;;;8.50;3.20;;;6.80;99.90;;;;;;5063822;28;20218;-55
2022/02/26 09:27:19;;;;;;;11.88;5.60;;;6.90;99.90;;;;;;5100203;27;20568;-50
2022/02/26 09:29:47;;;;;;;13.05;8.45;;;6.90;99.90;;;;;;5103513;28;20228;-52
2022/02/26 09:32:15;;;;;;;19.58;9.23;;;6.90;99.90;;;;;;5101552;28;20347;-52
2022/02/26 09:34:43;;;;;;;20.77;10.27;;;6.80;99.90;;;;;;5100259;28;20278;-54
2022/02/26 09:37:11;;;;;;;22.27;9.23;;;6.80;99.90;;;;;;5083662;28;20588;-56
2022/02/26 09:39:39;;;;;;;18.75;9.75;;;6.80;99.90;;;;;;5082506;28;20598;-56
2022/02/26 09:42:08;;;;;;;18.30;10.32;;;6.80;99.90;;;;;;5070087;28;20314;-54
2022/02/26 09:44:38;;;;;;;24.42;9.45;;;6.80;99.90;;;;;;5070453;28;20183;-53
2022/02/26 09:47:06;;;;;;;15.32;7.85;;;6.80;99.90;;;;;;5085790;28;20253;-54
2022/02/26 09:49:35;;;;;;;21.60;8.52;;;6.80;99.90;;;;;;5081910;28;20187;-53
2022/02/26 09:52:04;;;;;;;21.42;8.68;;;6.70;99.90;;;;;;5094802;28;20222;-51
2022/02/26 09:54:32;;;;;;;23.23;9.98;;;6.70;99.90;;;;;;5106495;28;20248;-53
2022/02/26 09:57:01;;;;;;;25.92;10.38;;;6.70;99.90;;;;;;5084997;27;20260;-52
2022/02/26 09:59:29;;;;;;;21.08;10.43;;;6.80;99.90;;;;;;5084449;28;20242;-53
2022/02/26 10:02:01;;;;;;;26.70;11.30;;;6.80;99.90;;;;;;5084588;28;20211;-53
2022/02/26 10:04:30;;;;;;;22.85;8.98;;;6.80;99.90;;;;;;5083663;28;20183;-51
2022/02/26 10:07:13;;;;;;;25.15;9.77;;;6.90;99.90;;;;;;5077289;28;20772;-53
2022/02/26 10:09:44;;;;;;;13.73;7.70;;;6.90;99.90;;;;;;5085559;28;20199;-51
2022/02/26 10:12:24;;;;;;;27.20;9.70;;;6.90;99.90;;;;;;5084656;28;20531;-52
2022/02/26 10:14:55;;;;;;;19.83;8.35;;;6.90;99.90;;;;;;5084241;28;20198;-53
2022/02/26 10:17:32;;;;;;;24.88;8.82;;;6.90;99.90;;;;;;5103207;28;20260;-52
2022/02/26 10:20:08;;;;;;;18.80;8.32;;;6.90;99.90;;;;;;5101187;28;20212;-51
2022/02/26 10:22:38;;;;;;;15.18;7.20;;;6.90;99.90;;;;;;5098598;28;20237;-52
2022/02/26 10:25:09;;;;;;;22.85;8.80;;;6.90;99.90;;;;;;5101733;27;20279;-50
2022/02/26 10:27:42;;;;;;;15.63;8.63;;;6.90;99.90;;;;;;5084403;28;20320;-54
2022/02/26 10:30:13;;;;;;;17.17;7.45;;;6.90;99.90;;;;;;5083076;28;20620;-53
2022/02/26 10:32:43;;;;;;;16.92;6.90;;;6.80;99.90;;;;;;5103408;28;20202;-49
2022/02/26 10:35:12;;;;;;;18.85;7.43;;;6.90;99.90;;;;;;5099330;28;20218;-51
2022/02/26 10:37:40;;;;;;;20.10;6.57;;;6.80;99.90;;;;;;5073892;28;20191;-51
2022/02/26 10:40:11;;;;;;;29.20;8.23;;;6.80;99.90;;;;;;5069129;28;20184;-53
2022/02/26 10:42:42;;;;;;;13.55;7.82;;;6.80;99.90;;;;;;5061110;28;20204;-53
2022/02/26 10:45:13;;;;;;;11.18;7.18;;;6.80;99.90;;;;;;5069096;28;20198;-51
2022/02/26 10:47:44;;;;;;;16.63;7.55;;;6.80;99.90;;;;;;5070896;28;20265;-50
2022/02/26 10:50:17;;;;;;;19.20;8.00;;;6.80;99.90;;;;;;5061563;28;20247;-54
2022/02/26 10:52:57;;;;;;;19.55;7.15;;;6.80;99.90;;;;;;5055242;28;20192;-51
2022/02/26 10:55:50;;;;;;;14.13;7.15;;;6.80;99.90;;;;;;5067219;28;20224;-53
2022/02/26 10:58:19;;;;;;;14.50;6.78;;;6.80;99.90;;;;;;5088998;28;20269;-51
2022/02/26 11:00:48;;;;;;;14.15;6.55;;;6.80;99.90;;;;;;5078984;28;20314;-54
2022/02/26 11:03:18;;;;;;;18.42;8.75;;;6.80;99.90;;;;;;5065945;28;20196;-53
2022/02/26 11:05:46;;;;;;;19.27;7.47;;;6.80;99.90;;;;;;5063118;28;20639;-51
2022/02/26 11:08:16;;;;;;;13.38;7.32;;;6.80;99.90;;;;;;5067411;28;20183;-51
2022/02/26 11:10:45;;;;;;;20.90;7.30;;;6.80;99.90;;;;;;5076147;28;20230;-50
2022/02/26 11:13:14;;;;;;;11.68;6.28;;;6.80;99.90;;;;;;5089810;28;20225;-53
2022/02/26 11:15:43;;;;;;;13.38;7.05;;;6.80;99.90;;;;;;5128688;22;20212;-50
2022/02/26 11:18:15;;;;;;;15.45;8.38;;;6.90;99.90;;;;;;5055230;28;20203;-50
2022/02/26 11:20:45;;;;;;;17.13;7.68;;;6.80;99.90;;;;;;5046889;28;20680;-50
2022/02/26 11:23:14;;;;;;;21.00;7.80;;;6.90;99.90;;;;;;5028913;28;20236;-50
2022/02/26 11:25:42;;;;;;;20.15;8.10;;;6.90;99.90;;;;;;5027644;28;20213;-50
2022/02/26 11:28:12;;;;;;;20.98;8.70;;;6.90;99.90;;;;;;5026406;28;20218;-50
2022/02/26 11:30:46;;;;;;;18.80;8.38;;;6.90;99.90;;;;;;5015724;28;20234;-49
2022/02/26 11:33:15;;;;;;;17.00;7.38;;;6.90;99.90;;;;;;5019887;28;20188;-50
2022/02/26 11:35:53;;;;;;;19.45;6.40;;;7.00;99.90;;;;;;5028250;28;20625;-50
2022/02/26 11:38:23;;;;;;;33.08;12.02;;;7.00;99.90;;;;;;5018355;28;20281;-50
2022/02/26 11:41:20;;;;;;;17.48;7.93;;;7.00;99.90;;;;;;5023223;28;20601;-50
2022/02/26 11:43:52;;;;;;;21.42;8.30;;;7.00;99.90;;;;;;5018942;28;20276;-50
2022/02/26 11:46:26;;;;;;;14.45;6.40;;;7.00;99.90;;;;;;5010891;28;20240;-50
2022/02/26 11:48:56;;;;;;;16.45;6.68;;;7.00;99.90;;;;;;5010139;28;20563;-50
2022/02/26 11:51:37;;;;;;;17.10;6.60;;;7.00;99.90;;;;;;5021097;28;20224;-51
2022/02/26 11:54:07;;;;;;;12.65;6.53;;;7.00;99.90;;;;;;5029459;28;20287;-50
2022/02/26 11:56:44;;;;;;;18.27;7.03;;;7.00;99.90;;;;;;5010605;28;20221;-50
2022/02/26 11:59:12;;;;;;;10.85;7.80;;;7.00;99.90;;;;;;5015735;28;20207;-50
2022/02/26 12:02:05;;;;;;;13.23;5.57;;;7.00;99.90;;;;;;5019710;28;20261;-50
2022/02/26 12:04:44;;;;;;;11.68;4.85;;;7.00;99.90;;;;;;5093398;22;20219;-67
2022/02/26 12:07:28;;;;;;;13.82;5.10;;;7.00;99.90;;;;;;5052925;28;20238;-67
2022/02/26 12:10:01;;;;;;;11.40;5.22;;;6.90;99.90;;;;;;5051677;28;20654;-66
2022/02/26 12:12:35;;;;;;;19.95;5.70;;;6.90;99.90;;;;;;5031193;28;20221;-65
2022/02/26 12:15:05;;;;;;;18.35;7.80;;;6.90;99.90;;;;;;5028608;28;20730;-69
2022/02/26 12:17:33;;;;;;;12.27;5.28;;;6.90;99.90;;;;;;5051444;28;20216;-68
2022/02/26 12:20:15;;;;;;;16.00;5.75;;;7.00;99.90;;;;;;5049430;28;20191;-69
2022/02/26 12:22:49;;;;;;;18.27;8.70;;;7.00;99.90;;;;;;5050149;28;20266;-66
2022/02/26 12:25:18;;;;;;;21.95;6.47;;;7.00;99.90;;;;;;5050852;28;20203;-68
2022/02/26 12:27:59;;;;;;;15.73;6.28;;;7.00;99.90;;;;;;5050818;28;20241;-68
2022/02/26 12:30:30;;;;;;;22.75;6.03;;;7.00;99.90;;;;;;5050662;28;20690;-68
2022/02/26 12:33:01;;;;;;;20.40;6.55;;;7.10;99.90;;;;;;5047101;28;20196;-66
2022/02/26 12:35:32;;;;;;;14.73;6.45;;;7.10;99.90;;;;;;5045727;28;20267;-67
2022/02/26 12:38:21;;;;;;;10.73;5.05;;;7.10;99.90;;;;;;5029148;28;20199;-66
2022/02/26 12:40:49;;;;;;;18.85;5.30;;;7.10;99.90;;;;;;5027680;28;20224;-66
2022/02/26 12:43:17;;;;;;;14.35;4.43;;;7.10;99.90;;;;;;5029981;28;20263;-67
2022/02/26 12:45:47;;;;;;;11.77;4.82;;;7.00;99.90;;;;;;5030335;28;20244;-67
2022/02/26 12:48:15;;;;;;;11.85;5.35;;;7.00;99.90;;;;;;5030482;28;20744;-68
2022/02/26 12:50:44;;;;;;;11.57;5.85;;;7.00;99.90;;;;;;5029348;28;20220;-67
2022/02/26 12:53:13;;;;;;;10.25;5.43;;;7.00;99.90;;;;;;5025647;28;20193;-66
2022/02/26 12:55:41;;;;;;;10.98;4.95;;;7.00;99.90;;;;;;5030183;28;20220;-68
2022/02/26 12:58:10;;;;;;;17.08;6.55;;;6.90;99.90;;;;;;5030684;28;20252;-68
2022/02/26 13:00:39;;;;;;;8.65;5.78;;;7.00;99.90;;;;;;5029205;28;20274;-68
2022/02/26 13:03:10;;;;;;;15.85;5.20;;;6.90;99.90;;;;;;5026852;28;20220;-67
2022/02/26 13:05:41;;;;;;;14.43;6.57;;;7.00;99.90;;;;;;5028253;28;20212;-69
2022/02/26 13:08:16;;;;;;;15.20;5.38;;;7.00;99.90;;;;;;5030583;28;20236;-68
2022/02/26 13:10:46;;;;;;;15.45;6.25;;;7.00;99.90;;;;;;5029911;28;20221;-69
2022/02/26 13:13:16;;;;;;;13.25;5.25;;;7.00;99.90;;;;;;5029688;28;20228;-69